Rosemount, Minnesota
Current Conditions -  °F | °C
As of 12:30 AM on Saturday 25 Oct 2014 (Local Time) from KSGS Reporting Station
Clear Clear  
Wind Chill: 58°   Ceiling: Unl
Heat Index: 58°   Visibility: 10mi
Dew Point: 47°   Wind: 7mph
Humidity: 67%   Direction: 270°W
Pressure: 29.89"   Gusts: NA
Location:  44.74°N, 93.12°W
Report Text: KSGS 250530Z AUTO 27006KT 10SM CLR 14/08 A2989 RMK AO2 T01440083
Loading
Personal Weather Stations






























Interactive Weather Map
Tropical Storm Tracking
New forecast layout! Learn more

10-Day Weather Forecast

Advertisements
Track Severe Weather on mobile